sensor_id;sensor_type;location;lat;lon;timestamp;P1;durP1;ratioP1;P2;durP2;ratioP2
66741;SDS011;53654;54.152;19.432;2023-05-07T00:00:32;5.20;;;3.30;;
66741;SDS011;53654;54.152;19.432;2023-05-07T00:03:18;5.40;;;3.30;;
66741;SDS011;53654;54.152;19.432;2023-05-07T00:05:48;3.30;;;3.00;;
66741;SDS011;53654;54.152;19.432;2023-05-07T00:08:16;4.60;;;3.60;;
66741;SDS011;53654;54.152;19.432;2023-05-07T00:10:44;4.90;;;3.40;;
66741;SDS011;53654;54.152;19.432;2023-05-07T00:13:12;4.70;;;3.50;;
66741;SDS011;53654;54.152;19.432;2023-05-07T00:15:40;5.00;;;3.30;;
66741;SDS011;53654;54.152;19.432;2023-05-07T00:18:08;3.80;;;3.40;;
66741;SDS011;53654;54.152;19.432;2023-05-07T00:20:37;4.00;;;3.30;;
66741;SDS011;53654;54.152;19.432;2023-05-07T00:23:05;5.20;;;3.20;;
66741;SDS011;53654;54.152;19.432;2023-05-07T00:25:33;5.40;;;3.20;;
66741;SDS011;53654;54.152;19.432;2023-05-07T00:28:01;5.40;;;3.60;;
66741;SDS011;53654;54.152;19.432;2023-05-07T00:30:31;4.00;;;3.10;;
66741;SDS011;53654;54.152;19.432;2023-05-07T00:32:59;3.80;;;3.20;;
66741;SDS011;53654;54.152;19.432;2023-05-07T00:35:28;5.10;;;3.30;;
66741;SDS011;53654;54.152;19.432;2023-05-07T00:37:57;4.80;;;3.30;;
66741;SDS011;53654;54.152;19.432;2023-05-07T00:40:25;4.40;;;3.10;;
66741;SDS011;53654;54.152;19.432;2023-05-07T00:42:53;3.60;;;3.20;;
66741;SDS011;53654;54.152;19.432;2023-05-07T00:45:26;5.10;;;3.40;;
66741;SDS011;53654;54.152;19.432;2023-05-07T00:47:57;4.50;;;3.20;;
66741;SDS011;53654;54.152;19.432;2023-05-07T00:50:27;5.50;;;3.20;;
66741;SDS011;53654;54.152;19.432;2023-05-07T00:52:56;4.80;;;3.10;;
66741;SDS011;53654;54.152;19.432;2023-05-07T00:55:25;4.80;;;2.90;;
66741;SDS011;53654;54.152;19.432;2023-05-07T00:57:53;4.20;;;3.20;;
66741;SDS011;53654;54.152;19.432;2023-05-07T01:00:21;4.20;;;3.30;;
66741;SDS011;53654;54.152;19.432;2023-05-07T01:02:49;3.60;;;3.20;;
66741;SDS011;53654;54.152;19.432;2023-05-07T01:05:18;4.40;;;3.00;;
66741;SDS011;53654;54.152;19.432;2023-05-07T01:07:48;4.60;;;3.40;;
66741;SDS011;53654;54.152;19.432;2023-05-07T01:10:17;5.00;;;3.40;;
66741;SDS011;53654;54.152;19.432;2023-05-07T01:12:46;3.80;;;3.00;;
66741;SDS011;53654;54.152;19.432;2023-05-07T01:15:16;4.20;;;2.90;;
66741;SDS011;53654;54.152;19.432;2023-05-07T01:17:45;6.60;;;3.20;;
66741;SDS011;53654;54.152;19.432;2023-05-07T01:20:28;3.60;;;2.90;;
66741;SDS011;53654;54.152;19.432;2023-05-07T01:22:57;2.90;;;2.70;;
66741;SDS011;53654;54.152;19.432;2023-05-07T01:25:28;3.70;;;3.20;;
66741;SDS011;53654;54.152;19.432;2023-05-07T01:27:57;5.30;;;3.30;;
66741;SDS011;53654;54.152;19.432;2023-05-07T01:30:29;4.60;;;3.40;;
66741;SDS011;53654;54.152;19.432;2023-05-07T01:33:06;3.60;;;3.00;;
66741;SDS011;53654;54.152;19.432;2023-05-07T01:35:39;3.50;;;3.10;;
66741;SDS011;53654;54.152;19.432;2023-05-07T01:38:11;3.80;;;3.10;;
66741;SDS011;53654;54.152;19.432;2023-05-07T01:40:40;4.60;;;3.20;;
66741;SDS011;53654;54.152;19.432;2023-05-07T01:43:09;4.20;;;3.30;;
66741;SDS011;53654;54.152;19.432;2023-05-07T01:45:38;3.70;;;2.90;;
66741;SDS011;53654;54.152;19.432;2023-05-07T01:48:09;3.30;;;3.00;;
66741;SDS011;53654;54.152;19.432;2023-05-07T01:50:38;5.70;;;3.40;;
66741;SDS011;53654;54.152;19.432;2023-05-07T01:53:07;3.40;;;2.80;;
66741;SDS011;53654;54.152;19.432;2023-05-07T01:55:35;5.40;;;3.30;;
66741;SDS011;53654;54.152;19.432;2023-05-07T01:58:04;3.30;;;2.80;;
66741;SDS011;53654;54.152;19.432;2023-05-07T02:00:32;4.70;;;3.10;;
66741;SDS011;53654;54.152;19.432;2023-05-07T02:03:01;4.20;;;3.20;;
66741;SDS011;53654;54.152;19.432;2023-05-07T02:05:40;3.70;;;2.80;;
66741;SDS011;53654;54.152;19.432;2023-05-07T02:08:17;4.10;;;2.90;;
66741;SDS011;53654;54.152;19.432;2023-05-07T02:10:45;3.70;;;2.90;;
66741;SDS011;53654;54.152;19.432;2023-05-07T02:13:14;4.20;;;3.00;;
66741;SDS011;53654;54.152;19.432;2023-05-07T02:15:42;4.70;;;3.10;;
66741;SDS011;53654;54.152;19.432;2023-05-07T02:18:10;4.00;;;2.90;;
66741;SDS011;53654;54.152;19.432;2023-05-07T02:20:38;4.80;;;2.90;;
66741;SDS011;53654;54.152;19.432;2023-05-07T02:23:06;5.10;;;2.90;;
66741;SDS011;53654;54.152;19.432;2023-05-07T02:25:34;4.00;;;2.90;;
66741;SDS011;53654;54.152;19.432;2023-05-07T02:28:02;4.00;;;2.90;;
66741;SDS011;53654;54.152;19.432;2023-05-07T02:30:54;5.00;;;2.90;;
66741;SDS011;53654;54.152;19.432;2023-05-07T02:33:22;3.60;;;3.10;;
66741;SDS011;53654;54.152;19.432;2023-05-07T02:35:50;3.10;;;2.80;;
66741;SDS011;53654;54.152;19.432;2023-05-07T02:38:19;5.10;;;3.20;;
66741;SDS011;53654;54.152;19.432;2023-05-07T02:40:47;5.00;;;2.80;;
66741;SDS011;53654;54.152;19.432;2023-05-07T02:43:16;3.90;;;2.90;;
66741;SDS011;53654;54.152;19.432;2023-05-07T02:45:46;4.30;;;2.90;;
66741;SDS011;53654;54.152;19.432;2023-05-07T02:48:14;3.80;;;2.70;;
66741;SDS011;53654;54.152;19.432;2023-05-07T02:50:42;3.60;;;2.90;;
66741;SDS011;53654;54.152;19.432;2023-05-07T02:53:11;4.10;;;3.20;;
66741;SDS011;53654;54.152;19.432;2023-05-07T02:55:39;3.30;;;2.70;;
66741;SDS011;53654;54.152;19.432;2023-05-07T02:58:07;4.00;;;2.90;;
66741;SDS011;53654;54.152;19.432;2023-05-07T03:00:36;4.20;;;2.90;;
66741;SDS011;53654;54.152;19.432;2023-05-07T03:03:22;3.10;;;2.80;;
66741;SDS011;53654;54.152;19.432;2023-05-07T03:05:50;3.60;;;2.90;;
66741;SDS011;53654;54.152;19.432;2023-05-07T03:08:18;5.10;;;3.10;;
66741;SDS011;53654;54.152;19.432;2023-05-07T03:10:46;3.80;;;2.90;;
66741;SDS011;53654;54.152;19.432;2023-05-07T03:13:15;4.10;;;2.70;;
66741;SDS011;53654;54.152;19.432;2023-05-07T03:15:43;3.40;;;3.10;;
66741;SDS011;53654;54.152;19.432;2023-05-07T03:18:11;3.40;;;2.70;;
66741;SDS011;53654;54.152;19.432;2023-05-07T03:20:39;3.10;;;2.80;;
66741;SDS011;53654;54.152;19.432;2023-05-07T03:23:08;3.70;;;2.90;;
66741;SDS011;53654;54.152;19.432;2023-05-07T03:25:36;3.90;;;2.80;;
66741;SDS011;53654;54.152;19.432;2023-05-07T03:28:04;4.30;;;2.70;;
66741;SDS011;53654;54.152;19.432;2023-05-07T03:30:44;4.00;;;2.90;;
66741;SDS011;53654;54.152;19.432;2023-05-07T03:33:12;3.20;;;2.80;;
66741;SDS011;53654;54.152;19.432;2023-05-07T03:35:40;4.60;;;2.60;;
66741;SDS011;53654;54.152;19.432;2023-05-07T03:38:09;3.40;;;3.00;;
66741;SDS011;53654;54.152;19.432;2023-05-07T03:40:37;4.90;;;3.00;;
66741;SDS011;53654;54.152;19.432;2023-05-07T03:43:05;3.20;;;2.90;;
66741;SDS011;53654;54.152;19.432;2023-05-07T03:45:35;4.70;;;3.10;;
66741;SDS011;53654;54.152;19.432;2023-05-07T03:48:16;4.00;;;2.90;;
66741;SDS011;53654;54.152;19.432;2023-05-07T03:50:45;4.10;;;3.00;;
66741;SDS011;53654;54.152;19.432;2023-05-07T03:53:15;2.90;;;2.70;;
66741;SDS011;53654;54.152;19.432;2023-05-07T03:55:43;3.20;;;2.90;;
66741;SDS011;53654;54.152;19.432;2023-05-07T03:58:12;3.40;;;3.00;;
66741;SDS011;53654;54.152;19.432;2023-05-07T04:00:40;3.30;;;3.00;;
66741;SDS011;53654;54.152;19.432;2023-05-07T04:03:19;3.70;;;2.80;;
66741;SDS011;53654;54.152;19.432;2023-05-07T04:05:48;3.50;;;2.90;;
66741;SDS011;53654;54.152;19.432;2023-05-07T04:08:17;3.70;;;2.70;;
66741;SDS011;53654;54.152;19.432;2023-05-07T04:10:54;4.70;;;2.80;;
66741;SDS011;53654;54.152;19.432;2023-05-07T04:13:23;4.80;;;2.80;;
66741;SDS011;53654;54.152;19.432;2023-05-07T04:15:52;3.20;;;2.90;;
66741;SDS011;53654;54.152;19.432;2023-05-07T04:18:21;3.10;;;2.80;;
66741;SDS011;53654;54.152;19.432;2023-05-07T04:20:49;5.40;;;3.00;;
66741;SDS011;53654;54.152;19.432;2023-05-07T04:23:18;3.10;;;2.80;;
66741;SDS011;53654;54.152;19.432;2023-05-07T04:25:46;4.60;;;2.80;;
66741;SDS011;53654;54.152;19.432;2023-05-07T04:28:33;3.00;;;2.70;;
66741;SDS011;53654;54.152;19.432;2023-05-07T04:31:02;3.40;;;2.90;;
66741;SDS011;53654;54.152;19.432;2023-05-07T04:33:30;4.50;;;2.80;;
66741;SDS011;53654;54.152;19.432;2023-05-07T04:36:02;3.20;;;2.80;;
66741;SDS011;53654;54.152;19.432;2023-05-07T04:38:35;3.60;;;2.70;;
66741;SDS011;53654;54.152;19.432;2023-05-07T04:41:05;3.90;;;2.70;;
66741;SDS011;53654;54.152;19.432;2023-05-07T04:43:37;2.90;;;2.60;;
66741;SDS011;53654;54.152;19.432;2023-05-07T04:46:05;3.50;;;2.50;;
66741;SDS011;53654;54.152;19.432;2023-05-07T04:48:33;3.10;;;2.70;;
66741;SDS011;53654;54.152;19.432;2023-05-07T04:51:02;3.20;;;2.50;;
66741;SDS011;53654;54.152;19.432;2023-05-07T04:53:30;3.20;;;2.60;;
66741;SDS011;53654;54.152;19.432;2023-05-07T04:55:59;4.00;;;2.60;;
66741;SDS011;53654;54.152;19.432;2023-05-07T04:58:32;3.20;;;2.50;;
66741;SDS011;53654;54.152;19.432;2023-05-07T05:01:00;3.00;;;2.50;;
66741;SDS011;53654;54.152;19.432;2023-05-07T05:03:29;2.70;;;2.50;;
66741;SDS011;53654;54.152;19.432;2023-05-07T05:05:58;3.30;;;2.40;;
66741;SDS011;53654;54.152;19.432;2023-05-07T05:08:29;3.40;;;2.70;;
66741;SDS011;53654;54.152;19.432;2023-05-07T05:11:01;3.00;;;2.60;;
66741;SDS011;53654;54.152;19.432;2023-05-07T05:13:30;3.10;;;2.50;;
66741;SDS011;53654;54.152;19.432;2023-05-07T05:15:59;2.90;;;2.60;;
66741;SDS011;53654;54.152;19.432;2023-05-07T05:18:28;4.10;;;2.40;;
66741;SDS011;53654;54.152;19.432;2023-05-07T05:20:56;4.40;;;2.70;;
66741;SDS011;53654;54.152;19.432;2023-05-07T05:23:24;3.30;;;2.80;;
66741;SDS011;53654;54.152;19.432;2023-05-07T05:25:58;3.50;;;2.60;;
66741;SDS011;53654;54.152;19.432;2023-05-07T05:28:29;4.80;;;3.20;;
66741;SDS011;53654;54.152;19.432;2023-05-07T05:30:57;2.70;;;2.50;;
66741;SDS011;53654;54.152;19.432;2023-05-07T05:33:26;2.80;;;2.50;;
66741;SDS011;53654;54.152;19.432;2023-05-07T05:35:54;3.70;;;2.30;;
66741;SDS011;53654;54.152;19.432;2023-05-07T05:38:22;2.60;;;2.40;;
66741;SDS011;53654;54.152;19.432;2023-05-07T05:40:51;3.00;;;2.40;;
66741;SDS011;53654;54.152;19.432;2023-05-07T05:43:23;2.80;;;2.40;;
66741;SDS011;53654;54.152;19.432;2023-05-07T05:45:51;3.80;;;2.60;;
66741;SDS011;53654;54.152;19.432;2023-05-07T05:48:19;3.00;;;2.60;;
66741;SDS011;53654;54.152;19.432;2023-05-07T05:50:48;4.00;;;2.60;;
66741;SDS011;53654;54.152;19.432;2023-05-07T05:53:18;3.90;;;2.50;;
66741;SDS011;53654;54.152;19.432;2023-05-07T05:55:46;2.50;;;2.30;;
66741;SDS011;53654;54.152;19.432;2023-05-07T05:58:14;4.30;;;2.20;;
66741;SDS011;53654;54.152;19.432;2023-05-07T06:00:49;2.60;;;2.40;;
66741;SDS011;53654;54.152;19.432;2023-05-07T06:03:21;4.30;;;2.60;;
66741;SDS011;53654;54.152;19.432;2023-05-07T06:05:49;2.80;;;2.50;;
66741;SDS011;53654;54.152;19.432;2023-05-07T06:08:19;4.30;;;2.60;;
66741;SDS011;53654;54.152;19.432;2023-05-07T06:10:47;2.80;;;2.60;;
66741;SDS011;53654;54.152;19.432;2023-05-07T06:13:16;2.60;;;2.40;;
66741;SDS011;53654;54.152;19.432;2023-05-07T06:15:44;3.20;;;2.40;;
66741;SDS011;53654;54.152;19.432;2023-05-07T06:18:12;2.90;;;2.60;;
66741;SDS011;53654;54.152;19.432;2023-05-07T06:20:40;2.70;;;2.50;;
66741;SDS011;53654;54.152;19.432;2023-05-07T06:23:13;2.50;;;2.30;;
66741;SDS011;53654;54.152;19.432;2023-05-07T06:25:51;3.00;;;2.20;;
66741;SDS011;53654;54.152;19.432;2023-05-07T06:28:21;2.80;;;2.30;;
66741;SDS011;53654;54.152;19.432;2023-05-07T06:30:50;3.70;;;2.40;;
66741;SDS011;53654;54.152;19.432;2023-05-07T06:33:18;2.60;;;2.10;;
66741;SDS011;53654;54.152;19.432;2023-05-07T06:35:47;3.20;;;2.40;;
66741;SDS011;53654;54.152;19.432;2023-05-07T06:38:15;3.40;;;2.40;;
66741;SDS011;53654;54.152;19.432;2023-05-07T06:40:47;2.50;;;2.30;;
66741;SDS011;53654;54.152;19.432;2023-05-07T06:43:16;2.40;;;2.20;;
66741;SDS011;53654;54.152;19.432;2023-05-07T06:45:54;2.90;;;2.10;;
66741;SDS011;53654;54.152;19.432;2023-05-07T06:48:23;2.30;;;2.10;;
66741;SDS011;53654;54.152;19.432;2023-05-07T06:50:59;2.90;;;2.20;;
66741;SDS011;53654;54.152;19.432;2023-05-07T06:53:29;3.30;;;2.20;;
66741;SDS011;53654;54.152;19.432;2023-05-07T06:55:59;2.60;;;2.20;;
66741;SDS011;53654;54.152;19.432;2023-05-07T06:58:27;3.00;;;2.10;;
66741;SDS011;53654;54.152;19.432;2023-05-07T07:00:55;3.40;;;2.10;;
66741;SDS011;53654;54.152;19.432;2023-05-07T07:03:23;3.70;;;2.30;;
66741;SDS011;53654;54.152;19.432;2023-05-07T07:05:52;4.00;;;2.10;;
66741;SDS011;53654;54.152;19.432;2023-05-07T07:08:21;2.50;;;2.00;;
66741;SDS011;53654;54.152;19.432;2023-05-07T07:10:51;2.20;;;2.00;;
66741;SDS011;53654;54.152;19.432;2023-05-07T07:13:19;4.20;;;2.40;;
66741;SDS011;53654;54.152;19.432;2023-05-07T07:15:47;2.40;;;2.20;;
66741;SDS011;53654;54.152;19.432;2023-05-07T07:18:17;3.10;;;2.20;;
66741;SDS011;53654;54.152;19.432;2023-05-07T07:20:46;2.10;;;1.90;;
66741;SDS011;53654;54.152;19.432;2023-05-07T07:23:14;3.10;;;2.10;;
66741;SDS011;53654;54.152;19.432;2023-05-07T07:25:42;2.10;;;2.00;;
66741;SDS011;53654;54.152;19.432;2023-05-07T07:28:11;3.20;;;2.00;;
66741;SDS011;53654;54.152;19.432;2023-05-07T07:30:39;2.40;;;2.00;;
66741;SDS011;53654;54.152;19.432;2023-05-07T07:33:07;2.40;;;1.90;;
66741;SDS011;53654;54.152;19.432;2023-05-07T07:35:37;3.00;;;2.00;;
66741;SDS011;53654;54.152;19.432;2023-05-07T07:38:05;3.40;;;2.20;;
66741;SDS011;53654;54.152;19.432;2023-05-07T07:40:34;2.20;;;1.90;;
66741;SDS011;53654;54.152;19.432;2023-05-07T07:43:03;2.20;;;2.00;;
66741;SDS011;53654;54.152;19.432;2023-05-07T07:45:32;4.70;;;1.90;;
66741;SDS011;53654;54.152;19.432;2023-05-07T07:48:00;5.40;;;2.00;;
66741;SDS011;53654;54.152;19.432;2023-05-07T07:50:31;2.10;;;1.90;;
66741;SDS011;53654;54.152;19.432;2023-05-07T07:53:12;2.30;;;1.90;;
66741;SDS011;53654;54.152;19.432;2023-05-07T07:55:40;1.90;;;1.80;;
66741;SDS011;53654;54.152;19.432;2023-05-07T07:58:10;2.30;;;2.00;;
66741;SDS011;53654;54.152;19.432;2023-05-07T08:00:38;2.10;;;1.90;;
66741;SDS011;53654;54.152;19.432;2023-05-07T08:03:08;2.00;;;1.80;;
66741;SDS011;53654;54.152;19.432;2023-05-07T08:05:40;2.30;;;1.60;;
66741;SDS011;53654;54.152;19.432;2023-05-07T08:08:08;2.00;;;1.60;;
66741;SDS011;53654;54.152;19.432;2023-05-07T08:10:37;2.50;;;1.90;;
66741;SDS011;53654;54.152;19.432;2023-05-07T08:13:11;2.00;;;1.80;;
66741;SDS011;53654;54.152;19.432;2023-05-07T08:15:41;2.10;;;1.70;;
66741;SDS011;53654;54.152;19.432;2023-05-07T08:18:10;1.70;;;1.60;;
66741;SDS011;53654;54.152;19.432;2023-05-07T08:20:39;1.90;;;1.80;;
66741;SDS011;53654;54.152;19.432;2023-05-07T08:23:09;2.40;;;1.80;;
66741;SDS011;53654;54.152;19.432;2023-05-07T08:25:38;4.00;;;1.80;;
66741;SDS011;53654;54.152;19.432;2023-05-07T08:28:07;2.20;;;2.00;;
66741;SDS011;53654;54.152;19.432;2023-05-07T08:30:37;2.50;;;1.60;;
66741;SDS011;53654;54.152;19.432;2023-05-07T08:33:06;2.60;;;1.80;;
66741;SDS011;53654;54.152;19.432;2023-05-07T08:35:36;2.60;;;1.70;;
66741;SDS011;53654;54.152;19.432;2023-05-07T08:38:06;1.90;;;1.80;;
66741;SDS011;53654;54.152;19.432;2023-05-07T08:40:36;2.00;;;1.80;;
66741;SDS011;53654;54.152;19.432;2023-05-07T08:43:08;2.30;;;1.70;;
66741;SDS011;53654;54.152;19.432;2023-05-07T08:45:37;2.20;;;1.80;;
66741;SDS011;53654;54.152;19.432;2023-05-07T08:48:09;2.00;;;1.50;;
66741;SDS011;53654;54.152;19.432;2023-05-07T08:50:44;1.90;;;1.80;;
66741;SDS011;53654;54.152;19.432;2023-05-07T08:53:12;2.90;;;1.90;;
66741;SDS011;53654;54.152;19.432;2023-05-07T08:55:42;2.20;;;1.80;;
66741;SDS011;53654;54.152;19.432;2023-05-07T08:58:10;2.90;;;1.60;;
66741;SDS011;53654;54.152;19.432;2023-05-07T09:00:39;1.90;;;1.70;;
66741;SDS011;53654;54.152;19.432;2023-05-07T09:03:09;2.70;;;1.60;;
66741;SDS011;53654;54.152;19.432;2023-05-07T09:05:43;2.60;;;1.80;;
66741;SDS011;53654;54.152;19.432;2023-05-07T09:08:14;2.00;;;1.70;;
66741;SDS011;53654;54.152;19.432;2023-05-07T09:10:44;3.20;;;1.80;;
66741;SDS011;53654;54.152;19.432;2023-05-07T09:13:13;2.20;;;2.00;;
66741;SDS011;53654;54.152;19.432;2023-05-07T09:15:43;2.10;;;1.90;;
66741;SDS011;53654;54.152;19.432;2023-05-07T09:18:14;3.20;;;1.90;;
66741;SDS011;53654;54.152;19.432;2023-05-07T09:20:44;2.20;;;1.60;;
66741;SDS011;53654;54.152;19.432;2023-05-07T09:23:13;3.40;;;1.90;;
66741;SDS011;53654;54.152;19.432;2023-05-07T09:25:43;2.40;;;1.60;;
66741;SDS011;53654;54.152;19.432;2023-05-07T09:28:16;2.40;;;1.60;;
66741;SDS011;53654;54.152;19.432;2023-05-07T09:30:44;3.20;;;1.90;;
66741;SDS011;53654;54.152;19.432;2023-05-07T09:33:13;3.20;;;1.80;;
66741;SDS011;53654;54.152;19.432;2023-05-07T09:35:43;4.80;;;1.90;;
66741;SDS011;53654;54.152;19.432;2023-05-07T09:38:14;2.10;;;1.60;;
66741;SDS011;53654;54.152;19.432;2023-05-07T09:40:48;1.70;;;1.60;;
66741;SDS011;53654;54.152;19.432;2023-05-07T09:43:36;1.70;;;1.60;;
66741;SDS011;53654;54.152;19.432;2023-05-07T09:46:16;1.90;;;1.70;;
66741;SDS011;53654;54.152;19.432;2023-05-07T09:48:50;2.90;;;1.80;;
66741;SDS011;53654;54.152;19.432;2023-05-07T09:51:25;2.40;;;1.50;;
66741;SDS011;53654;54.152;19.432;2023-05-07T09:53:58;2.30;;;1.70;;
66741;SDS011;53654;54.152;19.432;2023-05-07T09:56:32;2.70;;;1.50;;
66741;SDS011;53654;54.152;19.432;2023-05-07T09:59:01;1.70;;;1.60;;
66741;SDS011;53654;54.152;19.432;2023-05-07T10:01:32;2.20;;;1.70;;
66741;SDS011;53654;54.152;19.432;2023-05-07T10:04:03;2.80;;;1.70;;
66741;SDS011;53654;54.152;19.432;2023-05-07T10:06:34;2.10;;;1.60;;
66741;SDS011;53654;54.152;19.432;2023-05-07T10:09:03;3.30;;;1.60;;
66741;SDS011;53654;54.152;19.432;2023-05-07T10:11:36;4.10;;;1.60;;
66741;SDS011;53654;54.152;19.432;2023-05-07T10:14:04;2.00;;;1.50;;
66741;SDS011;53654;54.152;19.432;2023-05-07T10:16:36;2.80;;;1.50;;
66741;SDS011;53654;54.152;19.432;2023-05-07T10:19:08;2.00;;;1.60;;
66741;SDS011;53654;54.152;19.432;2023-05-07T10:21:58;1.80;;;1.70;;
66741;SDS011;53654;54.152;19.432;2023-05-07T10:24:33;3.20;;;1.70;;
66741;SDS011;53654;54.152;19.432;2023-05-07T10:27:06;3.00;;;1.60;;
66741;SDS011;53654;54.152;19.432;2023-05-07T10:29:44;2.20;;;1.70;;
66741;SDS011;53654;54.152;19.432;2023-05-07T10:35:16;2.00;;;1.90;;
66741;SDS011;53654;54.152;19.432;2023-05-07T10:37:49;2.10;;;1.60;;
66741;SDS011;53654;54.152;19.432;2023-05-07T10:40:20;1.80;;;1.40;;
66741;SDS011;53654;54.152;19.432;2023-05-07T10:42:54;2.50;;;1.60;;
66741;SDS011;53654;54.152;19.432;2023-05-07T10:45:24;1.90;;;1.60;;
66741;SDS011;53654;54.152;19.432;2023-05-07T10:50:53;2.20;;;1.60;;
66741;SDS011;53654;54.152;19.432;2023-05-07T10:54:18;2.40;;;1.40;;
66741;SDS011;53654;54.152;19.432;2023-05-07T10:56:53;2.50;;;1.60;;
66741;SDS011;53654;54.152;19.432;2023-05-07T10:59:31;2.40;;;1.60;;
66741;SDS011;53654;54.152;19.432;2023-05-07T11:02:12;2.00;;;1.80;;
66741;SDS011;53654;54.152;19.432;2023-05-07T11:07:58;1.90;;;1.70;;
66741;SDS011;53654;54.152;19.432;2023-05-07T11:11:06;2.40;;;1.60;;
66741;SDS011;53654;54.152;19.432;2023-05-07T11:13:50;2.50;;;2.30;;
66741;SDS011;53654;54.152;19.432;2023-05-07T11:17:00;2.00;;;1.70;;
66741;SDS011;53654;54.152;19.432;2023-05-07T11:22:39;2.60;;;1.90;;
66741;SDS011;53654;54.152;19.432;2023-05-07T11:25:17;2.20;;;1.60;;
66741;SDS011;53654;54.152;19.432;2023-05-07T11:27:57;2.20;;;1.60;;
66741;SDS011;53654;54.152;19.432;2023-05-07T11:30:32;1.60;;;1.50;;
66741;SDS011;53654;54.152;19.432;2023-05-07T11:33:02;2.80;;;1.80;;
66741;SDS011;53654;54.152;19.432;2023-05-07T11:35:33;2.80;;;1.90;;
66741;SDS011;53654;54.152;19.432;2023-05-07T11:38:04;3.70;;;2.50;;
66741;SDS011;53654;54.152;19.432;2023-05-07T11:40:33;2.10;;;1.70;;
66741;SDS011;53654;54.152;19.432;2023-05-07T11:43:09;2.70;;;1.90;;
66741;SDS011;53654;54.152;19.432;2023-05-07T11:45:38;2.30;;;1.80;;
66741;SDS011;53654;54.152;19.432;2023-05-07T11:48:06;2.30;;;1.90;;
66741;SDS011;53654;54.152;19.432;2023-05-07T11:50:34;2.60;;;1.80;;
66741;SDS011;53654;54.152;19.432;2023-05-07T11:53:08;2.60;;;1.70;;
66741;SDS011;53654;54.152;19.432;2023-05-07T11:55:36;2.00;;;1.60;;
66741;SDS011;53654;54.152;19.432;2023-05-07T11:58:04;2.30;;;1.50;;
66741;SDS011;53654;54.152;19.432;2023-05-07T12:00:32;1.90;;;1.60;;
66741;SDS011;53654;54.152;19.432;2023-05-07T12:03:06;2.40;;;1.60;;
66741;SDS011;53654;54.152;19.432;2023-05-07T12:05:35;2.20;;;1.70;;
66741;SDS011;53654;54.152;19.432;2023-05-07T12:08:05;1.90;;;1.40;;
66741;SDS011;53654;54.152;19.432;2023-05-07T12:10:33;2.10;;;1.50;;
66741;SDS011;53654;54.152;19.432;2023-05-07T12:13:01;2.10;;;1.70;;
66741;SDS011;53654;54.152;19.432;2023-05-07T12:15:29;2.60;;;1.60;;
66741;SDS011;53654;54.152;19.432;2023-05-07T12:17:57;2.60;;;1.40;;
66741;SDS011;53654;54.152;19.432;2023-05-07T12:20:25;1.90;;;1.70;;
66741;SDS011;53654;54.152;19.432;2023-05-07T12:22:53;3.10;;;1.50;;
66741;SDS011;53654;54.152;19.432;2023-05-07T12:25:22;1.70;;;1.50;;
66741;SDS011;53654;54.152;19.432;2023-05-07T12:27:52;2.40;;;1.50;;
66741;SDS011;53654;54.152;19.432;2023-05-07T12:30:21;2.00;;;1.40;;
66741;SDS011;53654;54.152;19.432;2023-05-07T12:32:51;2.30;;;1.40;;
66741;SDS011;53654;54.152;19.432;2023-05-07T12:35:30;1.60;;;1.50;;
66741;SDS011;53654;54.152;19.432;2023-05-07T12:38:00;2.90;;;1.60;;
66741;SDS011;53654;54.152;19.432;2023-05-07T12:40:48;2.00;;;1.30;;
66741;SDS011;53654;54.152;19.432;2023-05-07T12:43:24;2.40;;;1.50;;
66741;SDS011;53654;54.152;19.432;2023-05-07T12:45:54;2.10;;;1.40;;
66741;SDS011;53654;54.152;19.432;2023-05-07T12:48:24;1.50;;;1.40;;
66741;SDS011;53654;54.152;19.432;2023-05-07T12:50:55;1.60;;;1.50;;
66741;SDS011;53654;54.152;19.432;2023-05-07T12:53:25;1.90;;;1.50;;
66741;SDS011;53654;54.152;19.432;2023-05-07T12:55:55;2.20;;;1.50;;
66741;SDS011;53654;54.152;19.432;2023-05-07T13:00:55;2.90;;;1.50;;
66741;SDS011;53654;54.152;19.432;2023-05-07T13:03:31;2.90;;;1.50;;
66741;SDS011;53654;54.152;19.432;2023-05-07T13:06:02;2.10;;;1.40;;
66741;SDS011;53654;54.152;19.432;2023-05-07T13:08:32;1.90;;;1.40;;
66741;SDS011;53654;54.152;19.432;2023-05-07T13:11:02;1.80;;;1.50;;
66741;SDS011;53654;54.152;19.432;2023-05-07T13:13:31;1.60;;;1.40;;
66741;SDS011;53654;54.152;19.432;2023-05-07T13:16:01;2.80;;;1.30;;
66741;SDS011;53654;54.152;19.432;2023-05-07T13:18:30;2.00;;;1.40;;
66741;SDS011;53654;54.152;19.432;2023-05-07T13:21:00;1.30;;;1.30;;
66741;SDS011;53654;54.152;19.432;2023-05-07T13:23:29;2.30;;;1.70;;
66741;SDS011;53654;54.152;19.432;2023-05-07T13:25:57;1.50;;;1.40;;
66741;SDS011;53654;54.152;19.432;2023-05-07T13:28:25;1.70;;;1.50;;
66741;SDS011;53654;54.152;19.432;2023-05-07T13:30:53;2.00;;;1.40;;
66741;SDS011;53654;54.152;19.432;2023-05-07T13:33:22;2.50;;;1.30;;
66741;SDS011;53654;54.152;19.432;2023-05-07T13:35:51;2.70;;;1.60;;
66741;SDS011;53654;54.152;19.432;2023-05-07T13:38:19;3.10;;;1.40;;
66741;SDS011;53654;54.152;19.432;2023-05-07T13:40:49;2.10;;;1.70;;
66741;SDS011;53654;54.152;19.432;2023-05-07T13:43:17;2.50;;;1.10;;
66741;SDS011;53654;54.152;19.432;2023-05-07T13:45:46;1.60;;;1.50;;
66741;SDS011;53654;54.152;19.432;2023-05-07T13:48:14;2.30;;;1.40;;
66741;SDS011;53654;54.152;19.432;2023-05-07T13:50:42;2.20;;;1.30;;
66741;SDS011;53654;54.152;19.432;2023-05-07T13:53:10;1.70;;;1.30;;
66741;SDS011;53654;54.152;19.432;2023-05-07T13:55:38;1.90;;;1.30;;
66741;SDS011;53654;54.152;19.432;2023-05-07T13:58:07;2.40;;;1.40;;
66741;SDS011;53654;54.152;19.432;2023-05-07T14:00:35;2.20;;;1.50;;
66741;SDS011;53654;54.152;19.432;2023-05-07T14:03:03;1.90;;;1.30;;
66741;SDS011;53654;54.152;19.432;2023-05-07T14:05:32;2.10;;;1.70;;
66741;SDS011;53654;54.152;19.432;2023-05-07T14:08:01;2.10;;;1.40;;
66741;SDS011;53654;54.152;19.432;2023-05-07T14:10:29;2.30;;;1.40;;
66741;SDS011;53654;54.152;19.432;2023-05-07T14:12:58;3.30;;;1.80;;
66741;SDS011;53654;54.152;19.432;2023-05-07T14:15:26;2.40;;;2.10;;
66741;SDS011;53654;54.152;19.432;2023-05-07T14:17:54;2.00;;;1.60;;
66741;SDS011;53654;54.152;19.432;2023-05-07T14:20:23;2.90;;;1.50;;
66741;SDS011;53654;54.152;19.432;2023-05-07T14:22:51;2.70;;;2.40;;
66741;SDS011;53654;54.152;19.432;2023-05-07T14:25:18;6.60;;;6.20;;
66741;SDS011;53654;54.152;19.432;2023-05-07T14:27:48;5.50;;;3.30;;
66741;SDS011;53654;54.152;19.432;2023-05-07T14:30:17;5.80;;;3.60;;
66741;SDS011;53654;54.152;19.432;2023-05-07T14:32:45;4.30;;;2.90;;
66741;SDS011;53654;54.152;19.432;2023-05-07T14:35:13;4.80;;;3.30;;
66741;SDS011;53654;54.152;19.432;2023-05-07T14:37:42;3.80;;;3.20;;
66741;SDS011;53654;54.152;19.432;2023-05-07T14:40:11;3.60;;;2.50;;
66741;SDS011;53654;54.152;19.432;2023-05-07T14:42:40;4.50;;;2.70;;
66741;SDS011;53654;54.152;19.432;2023-05-07T14:45:08;4.40;;;2.70;;
66741;SDS011;53654;54.152;19.432;2023-05-07T14:47:37;3.70;;;2.60;;
66741;SDS011;53654;54.152;19.432;2023-05-07T14:50:05;3.40;;;2.80;;
66741;SDS011;53654;54.152;19.432;2023-05-07T14:52:33;6.20;;;2.90;;
66741;SDS011;53654;54.152;19.432;2023-05-07T14:55:01;4.80;;;2.70;;
66741;SDS011;53654;54.152;19.432;2023-05-07T14:57:29;4.60;;;3.00;;
66741;SDS011;53654;54.152;19.432;2023-05-07T15:00:01;3.70;;;2.90;;
66741;SDS011;53654;54.152;19.432;2023-05-07T15:02:32;3.90;;;3.00;;
66741;SDS011;53654;54.152;19.432;2023-05-07T15:05:00;3.10;;;2.80;;
66741;SDS011;53654;54.152;19.432;2023-05-07T15:07:28;3.90;;;2.80;;